Time;durP1;ratioP1;P1;durP2;ratioP2;P2;SDS_P1;SDS_P2;PMS_P1;PMS_P2;Temp;Humidity;BMP_temperature;BMP_pressure;BME280_temperature;BME280_humidity;BME280_pressure;Samples;Min_cycle;Max_cycle;Signal;HPM_P1;HPM_P2
2022/09/22 00:01:34;;;;;;;8.15;4.97;;;;;;;7.51;100.00;98008.06;5116448;27;20106;-81
2022/09/22 00:04:02;;;;;;;9.50;4.65;;;;;;;7.43;100.00;98004.88;5099154;27;20034;-83
2022/09/22 00:06:37;;;;;;;8.80;4.75;;;;;;;7.30;100.00;98009.84;5099177;27;20023;-81
2022/09/22 00:09:04;;;;;;;8.63;4.40;;;;;;;7.29;100.00;98023.22;5099511;27;20116;-81
2022/09/22 00:11:34;;;;;;;11.90;5.00;;;;;;;7.27;100.00;98030.38;5098460;27;20038;-81
2022/09/22 00:14:05;;;;;;;8.45;5.18;;;;;;;7.24;100.00;98018.09;5116017;27;20034;-81
2022/09/22 00:16:37;;;;;;;7.78;4.97;;;;;;;7.21;100.00;98025.31;5115477;27;20035;-81
2022/09/22 00:19:08;;;;;;;7.93;4.97;;;;;;;7.14;100.00;98018.53;5098844;27;20042;-82
2022/09/22 00:21:34;;;;;;;11.90;4.68;;;;;;;7.09;100.00;98024.03;5098642;27;20083;-82
2022/09/22 00:24:01;;;;;;;9.48;4.88;;;;;;;7.07;100.00;98029.41;5095188;28;20392;-82
2022/09/22 00:26:27;;;;;;;8.77;4.50;;;;;;;7.05;100.00;98031.25;5094575;28;20046;-82
2022/09/22 00:28:53;;;;;;;7.05;4.15;;;;;;;7.06;100.00;98032.13;5112163;28;20020;-82
2022/09/22 00:31:21;;;;;;;9.10;4.47;;;;;;;6.99;100.00;98028.84;5112598;28;20030;-82
2022/09/22 00:33:47;;;;;;;7.35;4.18;;;;;;;6.96;100.00;98028.97;5112351;28;20027;-82
2022/09/22 00:36:14;;;;;;;9.68;4.47;;;;;;;6.96;100.00;98036.09;5112310;28;20036;-82
2022/09/22 00:38:40;;;;;;;7.03;4.55;;;;;;;6.89;100.00;98032.78;5094985;28;20465;-82
2022/09/22 00:41:09;;;;;;;11.00;5.32;;;;;;;6.87;100.00;98039.97;5112215;28;20028;-82
2022/09/22 00:43:37;;;;;;;7.72;4.93;;;;;;;6.78;100.00;98043.00;5112307;28;20027;-82
2022/09/22 00:46:23;;;;;;;9.95;5.07;;;;;;;6.74;100.00;98027.22;5111847;28;20024;-82
2022/09/22 00:48:53;;;;;;;9.57;4.82;;;;;;;6.75;100.00;98039.59;5094935;28;20030;-82
2022/09/22 00:51:21;;;;;;;8.55;4.72;;;;;;;6.72;100.00;98037.03;5111969;28;20482;-81
2022/09/22 00:53:47;;;;;;;7.97;4.55;;;;;;;6.62;100.00;98030.34;5112701;28;20134;-81
2022/09/22 00:56:19;;;;;;;10.02;5.47;;;;;;;6.64;100.00;98039.16;5111541;28;20059;-82
2022/09/22 00:58:49;;;;;;;;;;;;;;;6.74;100.00;98052.00;5111778;28;20483;-82
2022/09/22 01:01:15;;;;;;;8.10;4.88;;;;;;;6.70;100.00;98044.22;5094592;28;19947;-82
2022/09/22 01:03:41;;;;;;;7.93;4.60;;;;;;;6.57;100.00;98032.31;5111410;28;20038;-82
2022/09/22 01:06:11;;;;;;;8.77;5.57;;;;;;;6.54;100.00;98041.28;5111810;28;20478;-82
2022/09/22 01:08:38;;;;;;;7.90;4.90;;;;;;;6.49;100.00;98046.75;5094544;28;20024;-82
2022/09/22 01:11:05;;;;;;;7.55;4.90;;;;;;;6.39;100.00;98031.25;5094532;28;20423;-82
2022/09/22 01:13:55;;;;;;;11.60;6.50;;;;;;;6.29;100.00;98032.50;5111515;28;20101;-82
2022/09/22 01:16:20;;;;;;;15.45;6.68;;;;;;;6.41;100.00;98047.97;5128587;27;20035;-82
2022/09/22 01:19:21;;;;;;;12.32;5.45;;;;;;;6.48;100.00;98049.50;5111047;28;20471;-83
2022/09/22 01:21:55;;;;;;;8.73;5.50;;;;;;;6.51;100.00;98060.88;5094582;28;20110;-81
2022/09/22 01:25:09;;;;;;;9.13;5.70;;;;;;;6.42;100.00;98049.72;5111572;28;20094;-82
2022/09/22 01:27:57;;;;;;;11.13;5.65;;;;;;;6.34;100.00;98034.06;5056349;28;20044;-82
2022/09/22 01:30:25;;;;;;;8.85;4.93;;;;;;;6.25;100.00;98023.78;5127860;27;20536;-81
2022/09/22 01:33:20;;;;;;;9.35;5.40;;;;;;;6.25;100.00;98030.88;5111005;28;20023;-81
2022/09/22 01:35:49;;;;;;;60.03;24.00;;;;;;;6.13;100.00;98026.88;5093491;28;20050;-82
2022/09/22 01:38:15;;;;;;;63.90;27.05;;;;;;;6.17;100.00;98038.25;5110539;28;20084;-82
2022/09/22 01:40:56;;;;;;;16.60;8.32;;;;;;;6.14;100.00;98049.00;5110933;28;20040;-81
2022/09/22 01:43:33;;;;;;;7.35;4.88;;;;;;;6.19;100.00;98047.03;5112395;28;20415;-83
2022/09/22 01:46:02;;;;;;;13.55;6.65;;;;;;;6.16;100.00;98048.00;5103706;28;20038;-81
2022/09/22 01:48:30;;;;;;;9.35;6.05;;;;;;;6.15;100.00;98037.47;5111201;28;20428;-77
2022/09/22 01:51:09;;;;;;;9.35;5.53;;;;;;;6.12;100.00;98043.72;5093342;28;20020;-76
2022/09/22 01:53:41;;;;;;;9.00;5.25;;;;;;;6.19;100.00;98053.22;5110169;28;20029;-76
2022/09/22 01:56:08;;;;;;;11.70;5.03;;;;;;;6.15;100.00;98054.28;5093484;28;20020;-77
2022/09/22 01:58:55;;;;;;;7.63;4.70;;;;;;;6.07;100.00;98048.34;5109847;28;20085;-76
2022/09/22 02:01:34;;;;;;;8.95;4.40;;;;;;;6.07;100.00;98053.66;5085522;28;20062;-76
2022/09/22 02:04:10;;;;;;;14.95;6.03;;;;;;;6.09;100.00;98045.66;5110157;28;20118;-77
2022/09/22 02:06:42;;;;;;;11.40;5.32;;;;;;;5.95;100.00;98035.50;5094434;28;20046;-76
2022/09/22 02:09:28;;;;;;;10.13;4.95;;;;;;;5.95;100.00;98049.66;5114040;27;20039;-77
2022/09/22 02:11:54;;;;;;;9.82;5.50;;;;;;;5.84;100.00;98042.97;5096868;28;20078;-77
2022/09/22 02:14:20;;;;;;;9.27;5.05;;;;;;;5.86;100.00;98054.44;5113815;28;20027;-76
2022/09/22 02:16:45;;;;;;;7.22;4.57;;;;;;;5.81;100.00;98059.88;5115172;28;20547;-76
2022/09/22 02:19:15;;;;;;;7.95;4.57;;;;;;;5.80;100.00;98059.91;5096935;28;20054;-76
2022/09/22 02:21:43;;;;;;;8.32;4.00;;;;;;;5.66;100.00;98047.09;5131049;27;20444;-76
2022/09/22 02:24:33;;;;;;;8.38;4.50;;;;;;;5.65;100.00;98049.84;5096717;28;20062;-76
2022/09/22 02:27:09;;;;;;;7.43;4.47;;;;;;;5.63;100.00;98051.69;5113695;28;20030;-76
2022/09/22 02:29:38;;;;;;;7.38;4.55;;;;;;;5.63;100.00;98051.69;5096805;28;20422;-76
2022/09/22 02:32:10;;;;;;;7.20;3.67;;;;;;;5.55;100.00;98054.59;5110227;28;20058;-76
2022/09/22 02:34:36;;;;;;;7.13;4.38;;;;;;;5.56;100.00;98056.31;5090185;28;20027;-76
2022/09/22 02:37:15;;;;;;;6.15;4.43;;;;;;;5.51;100.00;98057.41;5096549;28;20031;-76
2022/09/22 02:39:42;;;;;;;7.32;4.20;;;;;;;5.47;100.00;98067.25;5130520;27;20106;-77
2022/09/22 02:42:25;;;;;;;8.73;4.57;;;;;;;5.44;100.00;98062.06;5096401;28;20168;-77
2022/09/22 02:44:56;;;;;;;6.20;4.22;;;;;;;5.37;100.00;98061.38;5127558;27;20028;-77
2022/09/22 02:47:43;;;;;;;7.72;4.15;;;;;;;5.52;100.00;98088.31;5077043;28;20126;-77
2022/09/22 02:50:11;;;;;;;8.10;4.90;;;;;;;5.51;100.00;98078.63;5110430;28;20398;-78
2022/09/22 02:52:37;;;;;;;8.13;4.80;;;;;;;5.52;100.00;98081.22;5113114;28;20106;-76
2022/09/22 02:55:04;;;;;;;7.60;4.20;;;;;;;5.55;100.00;98085.56;5091725;28;20039;-76
2022/09/22 02:57:29;;;;;;;6.82;4.03;;;;;;;5.51;100.00;98082.13;5104883;28;20122;-77
2022/09/22 02:59:55;;;;;;;8.43;4.88;;;;;;;5.45;100.00;98071.72;5095946;28;20127;-76
2022/09/22 03:02:20;;;;;;;6.30;4.45;;;;;;;5.36;100.00;98064.94;5112993;28;20039;-76
2022/09/22 03:04:46;;;;;;;7.32;4.65;;;;;;;5.29;100.00;98059.91;5113089;28;20084;-76
2022/09/22 03:07:11;;;;;;;9.73;5.47;;;;;;;5.40;100.00;98079.84;5113142;28;20023;-76
2022/09/22 03:09:37;;;;;;;11.70;6.20;;;;;;;5.31;100.00;98081.94;5106924;28;20143;-76
2022/09/22 03:12:03;;;;;;;14.60;7.63;;;;;;;5.20;100.00;98071.66;5095858;28;20024;-77
2022/09/22 03:14:28;;;;;;;13.40;6.85;;;;;;;5.22;100.00;98082.22;5088507;28;20124;-77
2022/09/22 03:16:54;;;;;;;11.10;5.78;;;;;;;5.20;100.00;98084.91;5095413;28;20026;-77
2022/09/22 03:19:19;;;;;;;14.05;5.20;;;;;;;5.26;100.00;98091.81;5112174;28;20024;-77
2022/09/22 03:21:45;;;;;;;7.18;4.50;;;;;;;5.29;100.00;98102.34;5113979;28;20063;-76
2022/09/22 03:24:10;;;;;;;6.82;3.92;;;;;;;5.27;100.00;98104.16;5095331;28;20040;-76
2022/09/22 03:26:36;;;;;;;6.75;3.80;;;;;;;5.23;100.00;98099.88;5090753;28;20030;-76
2022/09/22 03:29:02;;;;;;;6.10;3.90;;;;;;;5.26;100.00;98110.38;5112469;28;20019;-76
2022/09/22 03:31:27;;;;;;;6.38;4.03;;;;;;;5.19;100.00;98098.22;5112539;28;20028;-77
2022/09/22 03:33:53;;;;;;;7.60;4.32;;;;;;;5.16;100.00;98093.03;5095500;28;20031;-74
2022/09/22 03:36:18;;;;;;;14.02;5.10;;;;;;;5.15;100.00;98101.88;5112340;28;20065;-75
2022/09/22 03:38:44;;;;;;;12.73;5.22;;;;;;;5.08;100.00;98105.63;5095295;28;20118;-77
2022/09/22 03:41:09;;;;;;;13.52;6.05;;;;;;;5.15;100.00;98112.50;5111777;28;20031;-75
2022/09/22 03:43:35;;;;;;;36.55;10.43;;;;;;;5.17;100.00;98110.69;5095330;28;20028;-75
2022/09/22 03:46:01;;;;;;;16.88;7.38;;;;;;;5.13;100.00;98114.34;5112230;28;20050;-75
2022/09/22 03:48:28;;;;;;;12.30;6.05;;;;;;;5.09;100.00;98110.03;5112064;28;20024;-75
2022/09/22 03:50:54;;;;;;;16.38;6.07;;;;;;;4.96;100.00;98092.75;5104821;28;20028;-75
2022/09/22 03:53:21;;;;;;;12.65;5.35;;;;;;;4.85;100.00;98088.69;5111930;28;20028;-75
2022/09/22 03:55:46;;;;;;;32.22;10.65;;;;;;;4.88;100.00;98093.03;5110354;28;20028;-75
2022/09/22 03:58:12;;;;;;;21.08;7.28;;;;;;;4.79;100.00;98093.31;5111101;28;20038;-75
2022/09/22 04:00:38;;;;;;;10.85;5.85;;;;;;;4.75;100.00;98097.81;5093026;28;20011;-77
2022/09/22 04:03:03;;;;;;;15.10;7.15;;;;;;;4.77;100.00;98106.59;5094656;28;20106;-77
2022/09/22 04:05:29;;;;;;;13.82;6.30;;;;;;;4.72;100.00;98108.50;5094785;28;20036;-76
2022/09/22 04:07:55;;;;;;;13.57;5.85;;;;;;;4.76;100.00;98123.41;5094770;28;20034;-76
2022/09/22 04:10:20;;;;;;;16.67;6.55;;;;;;;4.68;100.00;98116.56;5094826;28;20039;-77
2022/09/22 04:12:46;;;;;;;16.58;7.28;;;;;;;4.71;100.00;98127.09;5111947;28;20032;-76
2022/09/22 04:15:11;;;;;;;22.25;7.43;;;;;;;4.69;100.00;98127.16;5094442;28;20034;-76
2022/09/22 04:17:37;;;;;;;16.60;7.07;;;;;;;4.70;100.00;98136.84;5094473;28;20023;-76
2022/09/22 04:20:04;;;;;;;16.63;6.70;;;;;;;4.67;100.00;98147.53;5109673;28;20479;-76
2022/09/22 04:22:30;;;;;;;17.33;7.38;;;;;;;4.68;100.00;98154.53;5111175;28;20035;-76
2022/09/22 04:24:56;;;;;;;21.88;9.35;;;;;;;4.69;100.00;98151.00;5111695;28;20055;-76
2022/09/22 04:27:22;;;;;;;27.02;8.50;;;;;;;4.85;100.00;98172.63;5111334;28;20035;-76
2022/09/22 04:29:48;;;;;;;18.98;9.00;;;;;;;4.93;100.00;98175.91;5093683;28;20452;-76
2022/09/22 04:32:15;;;;;;;18.90;8.55;;;;;;;5.07;100.00;98189.63;5093622;28;20101;-76
2022/09/22 04:34:41;;;;;;;19.20;7.90;;;;;;;5.20;100.00;98195.44;5111389;28;20383;-76
2022/09/22 04:37:07;;;;;;;18.58;8.60;;;;;;;5.24;100.00;98189.09;5094537;28;20196;-76
2022/09/22 04:39:34;;;;;;;18.15;8.68;;;;;;;5.33;100.00;98183.53;5110964;28;20471;-77
2022/09/22 04:42:00;;;;;;;16.27;7.68;;;;;;;5.45;100.00;98191.97;5111389;28;20108;-76
2022/09/22 04:44:26;;;;;;;15.30;8.68;;;;;;;5.57;100.00;98190.69;5111071;28;20160;-76
2022/09/22 04:46:51;;;;;;;16.58;8.00;;;;;;;5.49;100.00;98171.53;5087222;28;20028;-76
2022/09/22 04:49:17;;;;;;;22.63;6.88;;;;;;;5.65;100.00;98186.03;5089821;28;20024;-77
2022/09/22 04:51:43;;;;;;;15.68;6.43;;;;;;;5.70;100.00;98176.13;5093652;28;20181;-76
2022/09/22 04:54:08;;;;;;;13.38;7.40;;;;;;;5.71;100.00;98167.25;5093569;28;20031;-76
2022/09/22 04:56:34;;;;;;;15.55;6.82;;;;;;;5.65;100.00;98172.78;5093508;28;20144;-76
2022/09/22 04:58:59;;;;;;;15.55;7.68;;;;;;;5.69;100.00;98168.25;5110635;28;20027;-75
2022/09/22 05:01:26;;;;;;;20.42;8.38;;;;;;;5.77;100.00;98174.16;5110623;28;20030;-79
2022/09/22 05:03:52;;;;;;;16.05;8.50;;;;;;;5.80;100.00;98172.28;5098026;28;20131;-77
2022/09/22 05:06:18;;;;;;;20.05;9.32;;;;;;;5.82;100.00;98174.84;5126254;27;20135;-77
2022/09/22 05:08:43;;;;;;;22.45;8.75;;;;;;;5.89;100.00;98172.00;5110758;28;20019;-77
2022/09/22 05:11:09;;;;;;;20.85;8.32;;;;;;;5.81;100.00;98162.53;5084833;28;20023;-76
2022/09/22 05:13:37;;;;;;;18.67;9.55;;;;;;;5.79;100.00;98165.22;5110132;28;20031;-76
2022/09/22 05:16:04;;;;;;;17.05;8.88;;;;;;;5.90;100.00;98171.09;5109839;28;20552;-78
2022/09/22 05:18:31;;;;;;;18.80;8.95;;;;;;;6.16;100.00;98182.59;5091980;28;20023;-77
2022/09/22 05:20:56;;;;;;;17.33;8.55;;;;;;;6.23;100.00;98168.19;5110274;28;20475;-76
2022/09/22 05:23:22;;;;;;;20.73;9.18;;;;;;;6.49;100.00;98176.97;5093240;28;20104;-76
2022/09/22 05:25:47;;;;;;;15.95;7.47;;;;;;;6.65;100.00;98165.78;5087147;28;20023;-78
2022/09/22 05:28:13;;;;;;;14.68;8.07;;;;;;;6.84;100.00;98162.41;5090238;28;20015;-77
2022/09/22 05:30:39;;;;;;;18.45;7.57;;;;;;;6.99;100.00;98159.16;5087517;28;20024;-77
2022/09/22 05:33:04;;;;;;;15.90;8.40;;;;;;;6.98;100.00;98144.13;5093395;28;20016;-76
2022/09/22 05:35:30;;;;;;;20.60;9.70;;;;;;;7.19;100.00;98150.44;5108853;28;20034;-75
2022/09/22 05:37:55;;;;;;;16.55;8.05;;;;;;;7.37;100.00;98143.50;5108798;28;20032;-76
2022/09/22 05:40:23;;;;;;;19.27;9.77;;;;;;;7.38;100.00;98127.47;5110536;28;20478;-76
2022/09/22 05:42:50;;;;;;;17.25;8.50;;;;;;;7.60;100.00;98144.31;5114303;28;20058;-77
2022/09/22 05:45:17;;;;;;;20.83;9.93;;;;;;;7.48;100.00;98114.66;5114065;28;20085;-76
2022/09/22 05:47:42;;;;;;;45.60;20.75;;;;;;;7.54;100.00;98125.06;5096727;28;20495;-76
2022/09/22 05:50:10;;;;;;;26.75;11.85;;;;;;;7.51;100.00;98106.56;5097357;28;20039;-76
2022/09/22 05:52:36;;;;;;;23.55;11.82;;;;;;;7.68;100.00;98120.06;5097038;28;20031;-75
2022/09/22 05:55:01;;;;;;;27.40;13.75;;;;;;;7.89;100.00;98123.63;5097081;28;20081;-77
2022/09/22 05:57:27;;;;;;;26.25;11.63;;;;;;;8.02;100.00;98116.84;5089624;28;20032;-76
2022/09/22 05:59:56;;;;;;;25.75;10.73;;;;;;;8.06;100.00;98103.31;5078034;28;20032;-76
2022/09/22 06:02:22;;;;;;;21.15;10.95;;;;;;;8.25;100.00;98107.84;5111495;28;20110;-78
2022/09/22 06:04:49;;;;;;;24.67;11.00;;;;;;;8.29;100.00;98080.16;5114340;28;20518;-77
2022/09/22 06:07:23;;;;;;;21.25;10.80;;;;;;;8.34;100.00;98071.03;5094808;28;20050;-77
2022/09/22 06:09:49;;;;;;;29.63;12.80;;;;;;;8.44;100.00;98077.69;5098004;28;20030;-79
2022/09/22 06:12:16;;;;;;;28.33;12.63;;;;;;;8.51;100.00;98079.16;5096867;28;20035;-76
2022/09/22 06:14:41;;;;;;;36.50;13.38;;;;;;;8.70;100.00;98079.19;5113911;28;20024;-77
2022/09/22 06:17:10;;;;;;;26.15;12.13;;;;;;;8.66;100.00;98067.78;5113693;28;20538;-76
2022/09/22 06:19:39;;;;;;;27.08;12.05;;;;;;;8.82;100.00;98072.41;5097035;28;20028;-76
2022/09/22 06:22:06;;;;;;;30.63;14.05;;;;;;;9.10;100.00;98083.53;5096641;28;20026;-76
2022/09/22 06:24:32;;;;;;;28.75;13.18;;;;;;;9.08;100.00;98069.38;5113853;28;20067;-77
2022/09/22 06:26:57;;;;;;;29.40;12.63;;;;;;;9.45;100.00;98084.47;5097639;28;20023;-77
2022/09/22 06:29:23;;;;;;;37.97;16.38;;;;;;;9.88;100.00;98091.22;5100823;28;20019;-86
2022/09/22 06:31:48;;;;;;;33.38;14.27;;;;;;;9.64;100.00;98051.44;5119691;28;20027;-85
2022/09/22 06:34:14;;;;;;;23.50;12.00;;;;;;;9.48;100.00;98020.22;5101503;28;20027;-83
2022/09/22 06:36:41;;;;;;;22.23;10.50;;;;;;;9.75;100.00;98051.75;5118819;28;20026;-87
2022/09/22 06:39:09;;;;;;;20.23;9.27;;;;;;;9.65;100.00;98012.25;5097581;28;20020;-77
2022/09/22 06:41:34;;;;;;;19.17;9.23;;;;;;;9.82;100.00;98028.28;5115389;28;20042;-83
2022/09/22 06:44:00;;;;;;;18.73;9.88;;;;;;;10.38;100.00;98054.75;5112686;28;20031;-81
2022/09/22 06:46:27;;;;;;;18.65;8.57;;;;;;;11.00;100.00;98067.41;5110078;28;20032;-77
2022/09/22 06:48:56;;;;;;;23.60;9.80;;;;;;;11.20;98.32;98051.09;5110078;28;20081;-77
2022/09/22 06:51:26;;;;;;;21.02;9.93;;;;;;;11.75;96.41;98050.66;5096371;28;20032;-76
2022/09/22 06:53:56;;;;;;;19.60;8.45;;;;;;;13.42;87.77;98071.50;5109898;28;20035;-79
2022/09/22 06:56:26;;;;;;;13.45;7.20;;;;;;;15.19;76.57;98036.81;5110093;28;21053;-76
2022/09/22 06:58:55;;;;;;;16.65;8.00;;;;;;;17.40;67.48;97962.78;5094015;28;20028;-78
2022/09/22 07:01:22;;;;;;;15.02;7.93;;;;;;;18.14;60.56;97860.84;5094093;28;20477;-77
2022/09/22 07:03:49;;;;;;;59.95;28.08;;;;;;;20.01;55.94;97842.69;5111404;28;20030;-78
2022/09/22 07:06:16;;;;;;;31.02;14.88;;;;;;;21.31;50.11;97779.97;5111629;28;20027;-78
2022/09/22 07:08:43;;;;;;;16.25;9.52;;;;;;;21.25;49.13;97734.31;5094931;28;20023;-78
2022/09/22 07:11:09;;;;;;;17.50;8.45;;;;;;;20.24;50.36;97708.19;5094291;28;20329;-77
2022/09/22 07:13:37;;;;;;;14.25;8.77;;;;;;;20.80;50.03;97708.00;5111574;28;20114;-78
2022/09/22 07:16:11;;;;;;;15.95;9.23;;;;;;;21.47;48.18;97707.44;5094512;28;20039;-77
2022/09/22 07:18:43;;;;;;;18.60;8.52;;;;;;;21.26;48.38;97697.91;5093819;28;20019;-77
2022/09/22 07:21:11;;;;;;;24.48;11.95;;;;;;;22.13;46.30;97688.66;5094013;28;20050;-78
2022/09/22 07:23:37;;;;;;;20.05;10.02;;;;;;;21.57;47.17;97674.66;5086737;28;20050;-77
2022/09/22 07:26:14;;;;;;;25.00;14.20;;;;;;;21.07;47.94;97669.84;5093642;28;20123;-77
2022/09/22 07:28:41;;;;;;;17.75;10.02;;;;;;;21.05;47.86;97652.84;5093600;28;20107;-77
2022/09/22 07:31:09;;;;;;;24.15;10.13;;;;;;;22.52;45.16;97664.41;5093179;28;20409;-79
2022/09/22 07:33:39;;;;;;;14.65;8.95;;;;;;;23.10;45.28;97669.81;5110303;28;20510;-76
2022/09/22 07:36:22;;;;;;;15.85;9.65;;;;;;;23.48;42.89;97648.31;5111708;28;20114;-84
2022/09/22 07:38:50;;;;;;;12.60;7.78;;;;;;;24.21;41.16;97632.59;5095521;28;20084;-77
2022/09/22 07:41:18;;;;;;;14.18;9.57;;;;;;;24.12;42.86;97637.25;5112168;28;20415;-76
2022/09/22 07:43:44;;;;;;;15.25;8.02;;;;;;;24.76;40.78;97629.72;5095163;28;20038;-77
2022/09/22 07:46:12;;;;;;;13.30;8.23;;;;;;;24.64;40.02;97610.13;5127963;27;20027;-77
2022/09/22 07:48:46;;;;;;;19.10;8.65;;;;;;;24.65;39.99;97597.28;5094502;28;20032;-78
2022/09/22 07:51:20;;;;;;;12.23;8.63;;;;;;;24.52;40.16;97597.03;5094335;28;20132;-81
2022/09/22 07:54:01;;;;;;;9.43;6.45;;;;;;;25.97;40.38;97603.97;5108450;28;20471;-78
2022/09/22 07:56:27;;;;;;;12.05;7.35;;;;;;;24.48;40.08;97573.84;5110631;27;20038;-77
2022/09/22 07:58:53;;;;;;;13.40;5.78;;;;;;;26.65;37.87;97602.72;5110139;28;20028;-78
2022/09/22 08:01:25;;;;;;;12.90;5.40;;;;;;;26.56;36.32;97574.56;5091326;28;20073;-78
2022/09/22 08:03:51;;;;;;;10.57;6.22;;;;;;;26.37;37.69;97575.16;5086402;28;20027;-77
2022/09/22 08:06:19;;;;;;;9.20;6.05;;;;;;;26.78;36.50;97568.03;5109260;28;20495;-79
2022/09/22 08:08:51;;;;;;;7.80;5.53;;;;;;;25.83;37.87;97552.75;5092887;28;20015;-79
2022/09/22 08:11:18;;;;;;;23.20;6.10;;;;;;;25.39;38.17;97546.38;5093555;28;20059;-79
2022/09/22 08:13:53;;;;;;;7.38;3.70;;;;;;;26.38;37.43;97574.13;5109672;28;20402;-79
2022/09/22 08:16:24;;;;;;;5.47;4.03;;;;;;;27.11;34.85;97546.41;5093043;28;20046;-79
2022/09/22 08:18:53;;;;;;;3.10;2.10;;;;;;;27.07;36.01;97553.31;5110884;28;20025;-78
2022/09/22 08:21:18;;;;;;;4.05;2.63;;;;;;;27.96;34.61;97548.91;5093798;28;20028;-77
2022/09/22 08:23:44;;;;;;;6.53;2.22;;;;;;;28.54;32.59;97530.94;5093606;28;20530;-78
2022/09/22 08:26:10;;;;;;;1.85;1.60;;;;;;;27.73;32.92;97515.34;5093884;28;20135;-77
2022/09/22 08:28:36;;;;;;;2.25;1.20;;;;;;;28.27;32.09;97520.94;5093646;28;20645;-78
2022/09/22 08:31:08;;;;;;;2.08;1.52;;;;;;;28.81;30.98;97509.81;5110828;28;20031;-80
2022/09/22 08:33:34;;;;;;;1.70;1.35;;;;;;;28.22;31.28;97495.91;5110493;28;20051;-78
2022/09/22 08:36:02;;;;;;;3.10;1.23;;;;;;;29.13;29.57;97503.50;5110737;28;20483;-78
2022/09/22 08:38:29;;;;;;;8.18;2.40;;;;;;;28.17;31.48;97490.19;5111012;28;20023;-79
2022/09/22 08:41:01;;;;;;;3.63;2.03;;;;;;;28.90;30.37;97487.38;5094084;28;20487;-79
2022/09/22 08:43:28;;;;;;;1.60;1.40;;;;;;;29.45;29.86;97480.56;5127834;27;20414;-81
2022/09/22 08:45:54;;;;;;;2.33;1.20;;;;;;;29.00;30.00;97473.19;5110877;28;20039;-78
2022/09/22 08:53:58;;;;;;;1.13;1.00;;;;;;;28.04;30.65;97452.44;5100184;28;20035;-78
2022/09/22 08:56:53;;;;;;;4.93;1.33;;;;;;;28.19;30.20;97461.41;5109902;28;20039;-78
2022/09/22 08:59:23;;;;;;;1.80;1.17;;;;;;;27.30;30.56;97427.56;5090985;28;20031;-77
2022/09/22 09:01:59;;;;;;;2.83;1.02;;;;;;;27.18;30.90;97428.31;5110386;28;20027;-78
2022/09/22 09:04:49;;;;;;;2.55;1.42;;;;;;;26.42;32.07;97426.44;5127250;27;20027;-78
2022/09/22 09:07:33;;;;;;;1.52;1.40;;;;;;;26.99;31.72;97437.28;5095793;28;20146;-78
2022/09/22 09:10:16;;;;;;;2.28;1.42;;;;;;;29.75;28.54;97449.75;5109279;28;20376;-79
2022/09/22 09:13:01;;;;;;;2.00;1.55;;;;;;;30.58;27.58;97455.06;5126513;27;20062;-78
2022/09/22 09:15:36;;;;;;;1.38;1.27;;;;;;;29.33;28.65;97420.78;5109415;28;20142;-77
2022/09/22 09:18:12;;;;;;;1.40;1.20;;;;;;;29.45;28.36;97419.91;5109481;28;20031;-78
2022/09/22 09:20:43;;;;;;;1.27;1.10;;;;;;;28.76;28.96;97404.97;5109534;28;20405;-78
2022/09/22 09:23:17;;;;;;;1.55;1.45;;;;;;;27.09;31.43;97391.94;5095054;28;20506;-78
2022/09/22 09:25:46;;;;;;;1.48;1.10;;;;;;;24.48;34.56;97363.22;5113064;27;20508;-78
2022/09/22 09:28:18;;;;;;;3.28;1.33;;;;;;;24.49;35.67;97393.09;5094364;27;20023;-77
2022/09/22 09:30:49;;;;;;;1.73;1.42;;;;;;;23.79;36.50;97387.00;5112767;27;20019;-76
2022/09/22 09:33:26;;;;;;;2.25;1.10;;;;;;;23.16;36.81;97381.72;5094576;28;20031;-77
2022/09/22 09:35:52;;;;;;;1.40;1.30;;;;;;;21.78;38.80;97372.84;5095018;28;20034;-78
2022/09/22 09:38:28;;;;;;;6.65;3.63;;;;;;;23.37;37.32;97405.66;5095580;28;20023;-78
2022/09/22 09:41:45;;;;;;;20.63;12.55;;;;;;;25.98;33.82;97434.81;5112871;28;20448;-77
2022/09/22 09:44:23;;;;;;;1.83;1.35;;;;;;;26.27;32.52;97413.63;5097126;28;20051;-78
2022/09/22 09:46:57;;;;;;;2.58;1.70;;;;;;;23.90;35.58;97391.22;5113096;28;20111;-78
2022/09/22 09:49:25;;;;;;;2.85;1.20;;;;;;;23.35;36.27;97389.44;5112806;28;20031;-77
2022/09/22 09:51:57;;;;;;;4.15;1.70;;;;;;;22.91;37.66;97394.59;5095822;28;20029;-77
2022/09/22 09:54:23;;;;;;;2.58;1.45;;;;;;;21.69;39.86;97379.28;5106800;28;20405;-77
2022/09/22 09:57:05;;;;;;;2.22;1.20;;;;;;;22.10;39.16;97400.16;5095856;28;20110;-77
2022/09/22 10:02:36;;;;;;;1.98;1.60;;;;;;;22.74;37.75;97403.84;5142121;27;20042;-78
2022/09/22 10:05:06;;;;;;;108.00;32.42;;;;;;;24.41;35.28;97439.69;5093223;28;20038;-77
2022/09/22 10:07:41;;;;;;;4.57;1.70;;;;;;;24.44;35.20;97411.97;5112908;28;20036;-78
2022/09/22 10:10:36;;;;;;;5.25;1.17;;;;;;;23.33;36.58;97388.78;5112295;28;20406;-77
2022/09/22 10:13:04;;;;;;;35.22;19.55;;;;;;;22.67;37.61;97378.31;5110678;28;20554;-77
2022/09/22 10:15:35;;;;;;;21.25;9.90;;;;;;;21.91;38.85;97362.34;5112568;28;20038;-78
2022/09/22 10:18:02;;;;;;;1.60;1.40;;;;;;;21.78;38.31;97370.13;5112233;28;20035;-78
2022/09/22 10:20:32;;;;;;;3.30;1.42;;;;;;;21.57;39.61;97373.31;5112489;28;20031;-78
2022/09/22 10:23:19;;;;;;;4.38;1.42;;;;;;;21.69;39.42;97379.28;5112311;28;20027;-78
2022/09/22 10:25:45;;;;;;;6.05;2.10;;;;;;;21.90;39.74;97392.47;5095951;28;20117;-77
2022/09/22 10:28:29;;;;;;;5.80;1.58;;;;;;;21.65;39.08;97379.81;5098604;27;20106;-78
2022/09/22 10:31:02;;;;;;;1.58;1.23;;;;;;;21.18;40.49;97376.81;5099684;27;20117;-79
2022/09/22 10:33:28;;;;;;;;;;;;;;;22.16;39.93;97409.50;5100977;27;20031;-78
2022/09/22 10:36:08;;;;;;;3.10;1.20;;;;;;;22.34;39.42;97401.13;5117158;27;19963;-78
2022/09/22 10:38:43;;;;;;;3.22;2.00;;;;;;;22.26;39.87;97398.44;5100209;27;20019;-76
2022/09/22 10:41:12;;;;;;;3.88;1.75;;;;;;;24.10;37.25;97433.41;5116940;27;20054;-79
2022/09/22 10:44:06;;;;;;;1.65;1.23;;;;;;;25.64;35.41;97435.47;5099830;27;20518;-79
2022/09/22 10:46:34;;;;;;;1.80;1.35;;;;;;;26.96;32.98;97434.94;5100241;27;20019;-79
2022/09/22 10:49:20;;;;;;;1.13;1.02;;;;;;;26.25;33.22;97407.50;5117013;27;20110;-80
2022/09/22 10:52:13;;;;;;;4.05;1.10;;;;;;;27.09;32.50;97415.81;5099950;27;20402;-79
2022/09/22 10:55:02;;;;;;;1.30;1.20;;;;;;;27.91;31.23;97419.38;5116389;27;20023;-78
2022/09/22 10:57:39;;;;;;;1.90;1.58;;;;;;;28.89;29.70;97410.44;5116987;27;20093;-78
2022/09/22 11:00:25;;;;;;;1.88;1.10;;;;;;;29.25;29.25;97408.13;5135271;27;20070;-79
2022/09/22 11:03:18;;;;;;;1.38;1.10;;;;;;;29.57;28.25;97385.09;5116947;27;20051;-78
2022/09/22 11:12:24;;;;;;;1.02;0.82;;;;;;;29.93;27.75;97379.00;5119352;27;20087;-78
2022/09/22 11:15:18;;;;;;;3.20;1.33;;;;;;;31.22;26.55;97393.09;5116940;27;20021;-79
2022/09/22 11:18:02;;;;;;;1.67;1.20;;;;;;;31.84;25.93;97388.34;5113211;28;20032;-78
2022/09/22 11:20:51;;;;;;;4.82;1.70;;;;;;;31.95;24.68;97360.72;5133314;27;20027;-79
2022/09/22 11:23:20;;;;;;;1.42;1.20;;;;;;;30.46;26.24;97331.72;5116399;27;20035;-77
2022/09/22 11:26:04;;;;;;;1.17;1.05;;;;;;;29.72;27.33;97331.56;5116165;27;20030;-79
2022/09/22 11:29:07;;;;;;;1.48;1.23;;;;;;;30.58;26.22;97339.06;5116192;27;20057;-77
2022/09/22 11:31:55;;;;;;;1.00;0.90;;;;;;;27.75;28.03;97280.38;5116373;27;20402;-78
2022/09/22 11:34:41;;;;;;;2.55;1.30;;;;;;;26.78;29.67;97296.25;5116110;27;20035;-78
2022/09/22 11:37:25;;;;;;;1.48;1.27;;;;;;;24.41;32.25;97280.22;5134384;27;20394;-77
2022/09/22 11:40:18;;;;;;;5.40;1.60;;;;;;;23.22;35.35;97294.47;5133668;27;20443;-78
2022/09/22 11:42:54;;;;;;;2.00;1.30;;;;;;;22.03;36.45;97283.81;5099201;27;20062;-79
2022/09/22 11:45:44;;;;;;;1.63;1.00;;;;;;;20.44;39.82;97293.19;5137324;27;20038;-78
2022/09/22 11:48:15;;;;;;;2.95;1.00;;;;;;;19.87;41.07;97300.13;5109366;27;20100;-78
2022/09/22 11:50:59;;;;;;;2.83;1.03;;;;;;;19.35;42.95;97315.41;5132671;27;20079;-77
2022/09/22 11:53:28;;;;;;;1.80;1.30;;;;;;;19.24;44.34;97318.34;5132826;27;20118;-78
2022/09/22 11:56:06;;;;;;;4.75;2.28;;;;;;;19.05;44.75;97318.47;5115551;27;20031;-77
2022/09/22 11:58:32;;;;;;;1.45;0.88;;;;;;;19.13;44.23;97334.84;5115335;27;20031;-76
2022/09/22 12:01:05;;;;;;;2.33;1.60;;;;;;;18.95;44.24;97335.66;5098482;27;20027;-79
2022/09/22 12:03:53;;;;;;;1.67;0.82;;;;;;;18.70;44.63;97341.78;5098889;27;20031;-77